Hovedside
METAR-TAF:

METAR-TAF

Lufthavner :

Tarawa, Kiribati

breddegrad: 01-21N, lengdegrad: 172-55E, høyde over havet: 2 m

Gjeldene værobservasjon

Denne rapporten ble laget for 46 minutter siden, klokken 18:00 UTC
Vind 7 kt fra Øst
Temperatur 29°C
Luftfuktighet 74%
Trykk 1008 hPa
Sikt 10 km eller mer
Spredte skyer i en høyde av 2000 ft
Spredte skyer i en høyde av 30000 ft

METAR: NGTA 191800Z 10007KT 9999 SCT020 SCT300 29/24 Q1008

Tid: 08:46 (18:46 UTC)

Varsel

Denne rapporten ble laget for 1 time og 44 minutter siden, klokken 17:02 UTC
Varsel gyldig fra 19. klokken 18 UTC til 20. klokken 18 UTC
Vind 8 kt fra Øst-sørøst
Sikt 10 km eller mer
Spredte skyer i en høyde av 1800 ft
Brutte skyer i en høyde av 10000 ft
Sannsynlighet 30% :
Midlertidig
fra 19. klokken 18 UTC til 20. klokken 06 UTC
Sikt: 5000 m
Få skyer i en høyde av 1800 ft, Bygeskyer.
torden, regn

TAF: NGTA 191702Z 1918/2018 11008KT 9999 SCT018 BKN100 PROB30 TEMPO 1918/2006 5000 TSRA FEW018CB

Værobservasjoner og værvarsel for over 4000 flyplasser (METAR- og TAF-rapporter).

Tilgjengelige stasjoner er representert av de røde og gule prikkene på kartet.

Hold musepekeren over prikken for å se navnet på stasjonen.

Klikk så for å se værobservasjoner og -varsler.

For å forandre kartet kan du klikke på den grønne knappen med svart kryss for å zoome inn, på den grønne knappen med strek for å zoome ut, eller på de grønne pilene for å se tilstøtende kart.


METAR-TAF: